createdAt,value
2022-09-30T00:01:57.925Z,5.35
2022-09-30T00:04:27.704Z,5.50
2022-09-30T00:06:56.673Z,5.32
2022-09-30T00:09:25.196Z,5.15
2022-09-30T00:11:53.853Z,5.32
2022-09-30T00:14:24.042Z,5.60
2022-09-30T00:16:52.496Z,5.53
2022-09-30T00:19:21.143Z,5.15
2022-09-30T00:21:50.883Z,5.50
2022-09-30T00:24:19.242Z,5.60
2022-09-30T00:26:47.488Z,4.80
2022-09-30T00:29:15.817Z,4.60
2022-09-30T00:31:44.252Z,5.18
2022-09-30T00:34:12.695Z,4.65
2022-09-30T00:36:44.498Z,5.30
2022-09-30T00:39:16.505Z,5.03
2022-09-30T00:41:44.858Z,5.13
2022-09-30T00:44:45.742Z,5.07
2022-09-30T00:47:36.759Z,4.93
2022-09-30T00:50:14.768Z,4.80
2022-09-30T00:52:44.914Z,4.82
2022-09-30T00:55:24.517Z,5.28
2022-09-30T00:57:52.933Z,5.22
2022-09-30T01:00:21.278Z,4.95
2022-09-30T01:02:50.741Z,4.93
2022-09-30T01:05:20.349Z,4.82
2022-09-30T01:07:49.529Z,4.72
2022-09-30T01:10:19.345Z,4.85
2022-09-30T01:12:47.673Z,4.70
2022-09-30T01:15:16.080Z,4.75
2022-09-30T01:17:50.523Z,5.00
2022-09-30T01:20:37.908Z,5.10
2022-09-30T01:23:24.781Z,5.00
2022-09-30T01:26:17.138Z,5.10
2022-09-30T01:29:33.704Z,4.72
2022-09-30T01:32:09.779Z,4.85
2022-09-30T01:34:47.721Z,4.65
2022-09-30T01:37:24.126Z,4.90
2022-09-30T01:40:01.198Z,5.20
2022-09-30T01:42:37.378Z,4.80
2022-09-30T01:45:12.798Z,4.80
2022-09-30T01:47:48.480Z,4.95
2022-09-30T01:50:22.158Z,4.82
2022-09-30T01:52:57.753Z,4.28
2022-09-30T01:55:31.585Z,4.30
2022-09-30T01:58:04.013Z,4.80
2022-09-30T02:00:35.113Z,4.32
2022-09-30T02:03:10.577Z,4.30
2022-09-30T02:05:44.001Z,4.53
2022-09-30T02:08:17.944Z,4.75
2022-09-30T02:10:51.854Z,4.32
2022-09-30T02:13:23.595Z,4.00
2022-09-30T02:15:56.108Z,4.15
2022-09-30T02:18:33.133Z,4.20
2022-09-30T02:21:04.846Z,4.05
2022-09-30T02:26:07.104Z,3.92
2022-09-30T02:28:39.491Z,4.50
2022-09-30T02:31:11.294Z,4.30
2022-09-30T02:33:45.564Z,4.43
2022-09-30T02:36:20.550Z,4.28
2022-09-30T02:38:56.571Z,4.32
2022-09-30T02:41:27.633Z,4.18
2022-09-30T02:43:57.731Z,4.22
2022-09-30T02:46:35.389Z,4.38
2022-09-30T02:49:10.035Z,4.22
2022-09-30T02:51:43.970Z,4.30
2022-09-30T02:54:21.467Z,4.22
2022-09-30T02:56:55.329Z,4.90
2022-09-30T02:59:24.751Z,4.50
2022-09-30T03:01:53.095Z,4.38
2022-09-30T03:04:26.569Z,4.25
2022-09-30T03:06:55.521Z,4.32
2022-09-30T03:09:27.218Z,4.43
2022-09-30T03:14:41.649Z,4.65
2022-09-30T03:17:35.055Z,4.88
2022-09-30T03:20:46.103Z,4.30
2022-09-30T03:23:44.918Z,4.25
2022-09-30T03:26:24.525Z,5.00
2022-09-30T03:29:03.832Z,5.63
2022-09-30T03:31:42.433Z,5.55
2022-09-30T03:34:20.455Z,6.20
2022-09-30T03:37:04.302Z,6.03
2022-09-30T03:39:47.812Z,5.90
2022-09-30T03:42:22.910Z,5.20
2022-09-30T03:45:02.608Z,5.30
2022-09-30T03:47:34.213Z,5.65
2022-09-30T03:52:34.784Z,5.13
2022-09-30T03:55:08.073Z,4.72
2022-09-30T03:57:36.365Z,4.93
2022-09-30T04:00:06.105Z,4.60
2022-09-30T04:02:37.962Z,4.45
2022-09-30T04:05:07.569Z,5.05
2022-09-30T04:07:37.248Z,5.47
2022-09-30T04:10:06.517Z,5.53
2022-09-30T04:12:34.774Z,5.47
2022-09-30T04:15:03.020Z,5.60
2022-09-30T04:17:31.721Z,5.22
2022-09-30T04:19:59.932Z,5.00
2022-09-30T04:22:28.162Z,5.40
2022-09-30T04:24:57.825Z,5.38
2022-09-30T04:27:26.367Z,5.13
2022-09-30T04:29:54.602Z,4.75
2022-09-30T04:32:23.481Z,4.75
2022-09-30T04:34:51.681Z,4.75
2022-09-30T04:37:19.894Z,5.18
2022-09-30T04:39:48.135Z,4.80
2022-09-30T04:42:19.340Z,5.13
2022-09-30T04:44:49.241Z,4.40
2022-09-30T04:47:17.470Z,5.28
2022-09-30T04:49:47.272Z,4.90
2022-09-30T04:52:15.457Z,4.85
2022-09-30T04:54:43.668Z,4.60
2022-09-30T04:57:12.292Z,4.97
2022-09-30T04:59:43.312Z,5.18
2022-09-30T05:02:12.910Z,4.95
2022-09-30T05:04:41.177Z,5.05
2022-09-30T05:07:09.485Z,4.57
2022-09-30T05:09:37.756Z,4.95
2022-09-30T05:12:06.058Z,4.70
2022-09-30T05:14:34.709Z,4.65
2022-09-30T05:17:04.397Z,4.30
2022-09-30T05:19:32.718Z,4.65
2022-09-30T05:22:00.950Z,4.40
2022-09-30T05:24:30.181Z,4.80
2022-09-30T05:26:58.420Z,4.60
2022-09-30T05:29:26.703Z,4.40
2022-09-30T05:31:54.927Z,4.80
2022-09-30T05:34:24.597Z,7.75
2022-09-30T05:36:53.200Z,6.22
2022-09-30T05:39:21.442Z,5.68
2022-09-30T05:41:49.583Z,5.63
2022-09-30T05:44:17.871Z,5.60
2022-09-30T05:46:46.153Z,5.50
2022-09-30T05:49:14.488Z,6.00
2022-09-30T05:51:44.674Z,5.40
2022-09-30T05:54:13.527Z,5.30
2022-09-30T05:56:41.824Z,5.55
2022-09-30T05:59:10.044Z,5.13
2022-09-30T06:01:38.837Z,5.88
2022-09-30T06:04:07.092Z,5.15
2022-09-30T06:06:35.324Z,3.90
2022-09-30T06:09:05.072Z,3.67
2022-09-30T06:11:33.351Z,3.97
2022-09-30T06:14:02.262Z,3.25
2022-09-30T06:16:32.138Z,3.05
2022-09-30T06:19:00.467Z,3.00
2022-09-30T06:21:29.152Z,2.95
2022-09-30T06:23:57.363Z,3.08
2022-09-30T06:26:27.049Z,3.00
2022-09-30T06:28:55.248Z,2.90
2022-09-30T06:31:24.089Z,3.28
2022-09-30T06:33:54.702Z,5.38
2022-09-30T06:36:22.965Z,3.00
2022-09-30T06:38:54.467Z,4.82
2022-09-30T06:41:24.620Z,5.85
2022-09-30T06:44:08.775Z,4.15
2022-09-30T06:46:49.780Z,3.10
2022-09-30T06:49:21.178Z,3.45
2022-09-30T06:51:51.534Z,4.05
2022-09-30T06:54:20.683Z,3.80
2022-09-30T06:56:49.245Z,3.70
2022-09-30T06:59:19.005Z,3.80
2022-09-30T07:01:47.332Z,3.30
2022-09-30T07:04:16.390Z,3.72
2022-09-30T07:06:44.606Z,3.60
2022-09-30T07:09:13.742Z,4.15
2022-09-30T07:11:42.256Z,3.83
2022-09-30T07:14:13.427Z,4.50
2022-09-30T07:16:44.810Z,4.78
2022-09-30T07:19:14.644Z,4.30
2022-09-30T07:21:42.856Z,4.60
2022-09-30T07:24:11.734Z,4.85
2022-09-30T07:26:40.799Z,3.20
2022-09-30T07:29:09.540Z,3.10
2022-09-30T07:31:37.879Z,3.67
2022-09-30T07:34:08.955Z,2.92
2022-09-30T07:36:38.290Z,2.90
2022-09-30T07:39:08.801Z,3.10
2022-09-30T07:41:39.397Z,3.08
2022-09-30T07:44:13.265Z,2.72
2022-09-30T07:46:42.468Z,3.65
2022-09-30T07:49:15.062Z,3.20
2022-09-30T07:51:45.666Z,3.28
2022-09-30T07:54:16.331Z,3.40
2022-09-30T07:57:08.749Z,3.53
2022-09-30T07:59:35.123Z,2.97
2022-09-30T08:02:04.232Z,3.00
2022-09-30T08:04:34.414Z,3.40
2022-09-30T08:07:04.883Z,3.38
2022-09-30T08:09:33.354Z,3.40
2022-09-30T08:12:03.807Z,3.67
2022-09-30T08:14:32.032Z,3.53
2022-09-30T08:17:00.684Z,3.65
2022-09-30T08:19:31.125Z,3.67
2022-09-30T08:22:00.700Z,3.80
2022-09-30T08:24:28.993Z,3.95
2022-09-30T08:26:57.323Z,3.63
2022-09-30T08:29:49.978Z,3.83
2022-09-30T08:32:13.917Z,4.18
2022-09-30T08:34:42.139Z,3.78
2022-09-30T08:37:11.693Z,4.80
2022-09-30T08:39:40.198Z,3.30
2022-09-30T08:42:42.393Z,3.70
2022-09-30T08:45:24.261Z,3.50
2022-09-30T08:48:02.629Z,4.00
2022-09-30T08:50:37.024Z,4.40
2022-09-30T08:53:14.489Z,4.20
2022-09-30T08:55:45.069Z,4.10
2022-09-30T08:58:26.725Z,5.10
2022-09-30T09:00:59.261Z,4.68
2022-09-30T09:03:31.061Z,5.47
2022-09-30T09:06:09.789Z,6.30
2022-09-30T09:09:03.260Z,5.72
2022-09-30T09:11:50.276Z,5.30
2022-09-30T09:14:29.542Z,5.82
2022-09-30T09:17:15.473Z,5.30
2022-09-30T09:19:48.729Z,5.15
2022-09-30T09:22:19.166Z,5.47
2022-09-30T09:24:53.648Z,4.90
2022-09-30T09:27:26.842Z,6.72
2022-09-30T09:30:06.521Z,6.22
2022-09-30T09:32:35.838Z,6.22
2022-09-30T09:35:14.981Z,7.75
2022-09-30T09:38:09.871Z,6.47
2022-09-30T09:40:57.469Z,6.72
2022-09-30T09:43:37.378Z,6.47
2022-09-30T09:46:13.306Z,6.60
2022-09-30T09:48:41.853Z,7.03
2022-09-30T09:51:18.766Z,7.00
2022-09-30T09:53:50.401Z,6.85
2022-09-30T09:59:10.827Z,6.53
2022-09-30T10:01:42.660Z,6.80
2022-09-30T10:04:24.684Z,6.22
2022-09-30T10:06:55.677Z,7.05
2022-09-30T10:09:29.469Z,7.10
2022-09-30T10:12:27.246Z,7.13
2022-09-30T10:15:03.404Z,6.72
2022-09-30T10:17:33.226Z,6.40
2022-09-30T10:20:06.766Z,6.25
2022-09-30T10:22:36.749Z,6.35
2022-09-30T10:25:22.112Z,6.15
2022-09-30T10:28:00.501Z,11.40
2022-09-30T10:30:38.715Z,11.07
2022-09-30T10:33:21.288Z,7.95
2022-09-30T10:35:58.778Z,6.20
2022-09-30T10:38:29.670Z,7.45
2022-09-30T10:40:58.685Z,6.25
2022-09-30T10:43:32.549Z,6.47
2022-09-30T10:48:55.111Z,6.10
2022-09-30T10:51:27.528Z,6.22
2022-09-30T10:53:57.121Z,6.38
2022-09-30T10:56:44.221Z,5.95
2022-09-30T10:59:27.030Z,6.80
2022-09-30T11:02:00.076Z,6.53
2022-09-30T11:04:36.782Z,5.90
2022-09-30T11:07:16.726Z,6.72
2022-09-30T11:09:53.433Z,6.70
2022-09-30T11:12:30.359Z,6.75
2022-09-30T11:15:07.675Z,6.45
2022-09-30T11:17:42.732Z,5.95
2022-09-30T11:20:22.015Z,6.60
2022-09-30T11:22:58.008Z,6.30
2022-09-30T11:25:41.918Z,5.78
2022-09-30T11:28:27.001Z,6.30
2022-09-30T11:31:07.335Z,5.93
2022-09-30T11:33:48.692Z,5.80
2022-09-30T11:36:29.126Z,5.85
2022-09-30T11:39:09.118Z,5.68
2022-09-30T11:41:39.915Z,5.53
2022-09-30T11:44:26.862Z,5.47
2022-09-30T11:47:32.228Z,6.00
2022-09-30T11:50:40.727Z,5.50
2022-09-30T11:53:18.162Z,5.40
2022-09-30T11:55:59.972Z,5.47
2022-09-30T11:58:42.219Z,5.78
2022-09-30T12:01:23.568Z,5.35
2022-09-30T12:04:02.191Z,5.38
2022-09-30T12:06:36.197Z,5.25
2022-09-30T12:09:19.656Z,5.15
2022-09-30T12:11:53.429Z,5.70
2022-09-30T12:14:27.498Z,5.28
2022-09-30T12:16:57.854Z,5.60
2022-09-30T12:19:34.054Z,5.10
2022-09-30T12:22:08.049Z,5.55
2022-09-30T12:24:39.548Z,5.10
2022-09-30T12:27:16.844Z,5.18
2022-09-30T12:30:09.133Z,5.43
2022-09-30T12:33:18.297Z,5.22
2022-09-30T12:36:19.634Z,4.65
2022-09-30T12:39:04.121Z,4.60
2022-09-30T12:41:48.771Z,4.40
2022-09-30T12:44:45.375Z,4.28
2022-09-30T12:47:27.448Z,4.40
2022-09-30T12:49:59.130Z,4.97
2022-09-30T12:52:33.817Z,5.22
2022-09-30T12:55:06.448Z,4.82
2022-09-30T12:57:38.194Z,4.40
2022-09-30T13:00:15.338Z,4.97
2022-09-30T13:02:46.256Z,4.53
2022-09-30T13:05:53.926Z,4.63
2022-09-30T13:08:44.416Z,4.80
2022-09-30T13:11:46.151Z,4.70
2022-09-30T13:14:26.458Z,5.05
2022-09-30T13:17:04.432Z,4.75
2022-09-30T13:19:36.384Z,5.13
2022-09-30T13:22:43.174Z,4.90
2022-09-30T13:25:17.165Z,4.43
2022-09-30T13:27:47.448Z,4.85
2022-09-30T13:30:39.136Z,4.70
2022-09-30T13:33:32.278Z,5.35
2022-09-30T13:36:11.131Z,4.88
2022-09-30T13:38:41.506Z,5.00
2022-09-30T13:41:18.915Z,5.40
2022-09-30T13:43:58.377Z,5.50
2022-09-30T13:46:35.702Z,5.22
2022-09-30T13:49:13.386Z,5.30
2022-09-30T13:51:42.646Z,5.82
2022-09-30T13:54:27.733Z,5.25
2022-09-30T13:56:58.040Z,5.28
2022-09-30T13:59:52.241Z,5.30
2022-09-30T14:03:05.192Z,5.10
2022-09-30T14:06:02.433Z,5.15
2022-09-30T14:08:51.026Z,4.63
2022-09-30T14:11:55.197Z,4.78
2022-09-30T14:15:02.445Z,5.07
2022-09-30T14:18:07.774Z,4.63
2022-09-30T14:20:48.244Z,5.07
2022-09-30T14:23:17.283Z,5.57
2022-09-30T14:25:55.045Z,5.35
2022-09-30T14:28:32.801Z,5.05
2022-09-30T14:31:09.389Z,4.55
2022-09-30T14:33:39.872Z,4.85
2022-09-30T14:36:14.640Z,5.55
2022-09-30T14:38:48.467Z,5.15
2022-09-30T14:41:20.814Z,4.90
2022-09-30T14:43:53.019Z,4.97
2022-09-30T14:46:30.359Z,5.00
2022-09-30T14:49:04.590Z,5.22
2022-09-30T14:51:43.341Z,5.28
2022-09-30T14:54:19.281Z,5.65
2022-09-30T14:56:48.294Z,5.22
2022-09-30T14:59:22.184Z,5.55
2022-09-30T15:01:55.578Z,5.30
2022-09-30T15:04:27.099Z,5.47
2022-09-30T15:09:28.217Z,5.15
2022-09-30T15:11:56.467Z,5.40
2022-09-30T15:14:25.996Z,6.82
2022-09-30T15:17:01.429Z,6.00
2022-09-30T15:19:35.832Z,5.72
2022-09-30T15:22:06.534Z,4.95
2022-09-30T15:24:36.768Z,5.53
2022-09-30T15:27:05.754Z,5.13
2022-09-30T15:29:33.954Z,4.82
2022-09-30T15:32:12.943Z,4.95
2022-09-30T15:34:43.550Z,5.13
2022-09-30T15:37:22.868Z,5.10
2022-09-30T15:40:09.608Z,5.15
2022-09-30T15:42:40.117Z,4.70
2022-09-30T15:45:34.647Z,5.40
2022-09-30T15:48:06.966Z,5.10
2022-09-30T15:50:40.704Z,5.50
2022-09-30T15:53:22.646Z,5.22
2022-09-30T15:55:53.206Z,4.97
2022-09-30T15:58:37.953Z,5.63
2022-09-30T16:01:17.414Z,5.35
2022-09-30T16:03:56.484Z,5.43
2022-09-30T16:06:28.745Z,5.63
2022-09-30T16:09:01.659Z,5.05
2022-09-30T16:11:34.962Z,5.10
2022-09-30T16:14:06.143Z,5.22
2022-09-30T16:16:37.091Z,4.88
2022-09-30T16:19:07.582Z,5.53
2022-09-30T16:21:44.890Z,5.40
2022-09-30T16:24:45.315Z,5.93
2022-09-30T16:27:30.423Z,7.45
2022-09-30T16:30:00.024Z,6.88
2022-09-30T16:32:41.037Z,7.82
2022-09-30T16:35:18.085Z,7.78
2022-09-30T16:37:46.330Z,7.47
2022-09-30T16:40:21.567Z,9.30
2022-09-30T16:42:50.273Z,9.55
2022-09-30T16:45:19.185Z,8.85
2022-09-30T16:47:47.437Z,8.98
2022-09-30T16:50:25.765Z,7.68
2022-09-30T16:52:53.978Z,7.47
2022-09-30T16:55:22.404Z,7.55
2022-09-30T16:57:51.167Z,7.25
2022-09-30T17:00:19.558Z,8.80
2022-09-30T17:02:49.376Z,7.85
2022-09-30T17:05:19.984Z,9.13
2022-09-30T17:07:53.088Z,8.50
2022-09-30T17:10:24.133Z,8.20
2022-09-30T17:12:53.789Z,8.60
2022-09-30T17:15:22.678Z,7.93
2022-09-30T17:17:52.835Z,8.80
2022-09-30T17:20:21.686Z,7.47
2022-09-30T17:22:51.532Z,9.88
2022-09-30T17:25:20.484Z,7.68
2022-09-30T17:27:50.212Z,7.00
2022-09-30T17:30:19.523Z,6.88
2022-09-30T17:32:48.066Z,7.60
2022-09-30T17:35:16.842Z,7.38
2022-09-30T17:37:46.609Z,7.35
2022-09-30T17:40:34.536Z,6.85
2022-09-30T17:43:10.468Z,6.65
2022-09-30T17:45:40.557Z,6.40
2022-09-30T17:48:09.747Z,6.55
2022-09-30T17:50:38.775Z,6.68
2022-09-30T17:53:07.728Z,6.05
2022-09-30T17:55:37.554Z,5.47
2022-09-30T17:58:05.944Z,5.63
2022-09-30T18:00:34.368Z,6.32
2022-09-30T18:03:02.949Z,5.60
2022-09-30T18:05:32.117Z,5.03
2022-09-30T18:08:00.869Z,5.00
2022-09-30T18:10:29.567Z,6.07
2022-09-30T18:12:59.811Z,5.82
2022-09-30T18:15:28.364Z,5.30
2022-09-30T18:17:56.748Z,4.72
2022-09-30T18:20:25.695Z,4.57
2022-09-30T18:22:54.264Z,4.10
2022-09-30T18:25:23.231Z,4.43
2022-09-30T18:27:53.260Z,4.30
2022-09-30T18:30:23.817Z,3.95
2022-09-30T18:32:53.899Z,4.07
2022-09-30T18:35:25.022Z,4.68
2022-09-30T18:37:54.643Z,4.78
2022-09-30T18:40:24.716Z,5.53
2022-09-30T18:42:58.672Z,6.47
2022-09-30T18:45:29.199Z,6.97
2022-09-30T18:47:59.218Z,6.20
2022-09-30T18:50:28.649Z,5.72
2022-09-30T18:52:57.952Z,4.95
2022-09-30T18:55:26.547Z,5.13
2022-09-30T18:57:55.632Z,5.20
2022-09-30T19:00:24.157Z,5.57
2022-09-30T19:02:54.728Z,5.90
2022-09-30T19:05:23.273Z,5.88
2022-09-30T19:07:53.488Z,5.13
2022-09-30T19:10:25.843Z,5.15
2022-09-30T19:12:54.957Z,4.75
2022-09-30T19:15:23.679Z,4.53
2022-09-30T19:17:53.741Z,4.70
2022-09-30T19:20:23.453Z,5.15
2022-09-30T19:22:52.415Z,5.45
2022-09-30T19:25:21.014Z,5.38
2022-09-30T19:27:51.520Z,4.63
2022-09-30T19:30:21.059Z,5.30
2022-09-30T19:32:49.814Z,4.82
2022-09-30T19:35:19.389Z,4.32
2022-09-30T19:38:00.488Z,4.95
2022-09-30T19:43:00.569Z,4.70
2022-09-30T19:45:29.002Z,4.80
2022-09-30T19:47:58.599Z,5.28
2022-09-30T19:50:27.315Z,4.75
2022-09-30T19:52:57.857Z,5.05
2022-09-30T19:55:26.781Z,5.22
2022-09-30T19:57:55.321Z,5.40
2022-09-30T20:00:24.257Z,5.25
2022-09-30T20:02:52.778Z,5.40
2022-09-30T20:05:22.585Z,6.00
2022-09-30T20:07:51.450Z,5.03
2022-09-30T20:10:21.287Z,4.38
2022-09-30T20:12:49.722Z,4.10
2022-09-30T20:15:35.597Z,4.15
2022-09-30T20:18:03.969Z,4.72
2022-09-30T20:20:42.911Z,5.20
2022-09-30T20:23:11.282Z,5.38
2022-09-30T20:25:41.256Z,4.93
2022-09-30T20:28:10.336Z,5.28
2022-09-30T20:30:45.603Z,4.68
2022-09-30T20:33:18.941Z,4.60
2022-09-30T20:35:48.198Z,4.30
2022-09-30T20:38:24.201Z,4.22
2022-09-30T20:40:57.077Z,4.20
2022-09-30T20:43:28.060Z,4.20
2022-09-30T20:46:00.268Z,4.03
2022-09-30T20:48:32.611Z,4.30
2022-09-30T20:51:01.994Z,4.43
2022-09-30T20:53:30.322Z,4.57
2022-09-30T20:56:02.016Z,4.28
2022-09-30T21:01:03.523Z,4.97
2022-09-30T21:03:36.054Z,4.68
2022-09-30T21:06:04.736Z,4.85
2022-09-30T21:08:33.116Z,4.85
2022-09-30T21:11:05.051Z,4.80
2022-09-30T21:13:33.576Z,4.63
2022-09-30T21:16:03.048Z,4.70
2022-09-30T21:18:31.740Z,5.10
2022-09-30T21:21:01.644Z,4.72
2022-09-30T21:23:30.952Z,5.25
2022-09-30T21:25:59.427Z,5.13
2022-09-30T21:28:29.604Z,5.03
2022-09-30T21:30:58.033Z,4.75
2022-09-30T21:33:27.349Z,4.70
2022-09-30T21:36:02.589Z,5.13
2022-09-30T21:38:31.652Z,5.55
2022-09-30T21:41:01.400Z,6.00
2022-09-30T21:43:32.718Z,5.93
2022-09-30T21:46:02.938Z,6.43
2022-09-30T21:48:32.695Z,7.28
2022-09-30T21:51:01.561Z,6.05
2022-09-30T21:53:30.373Z,5.68
2022-09-30T21:56:00.584Z,5.38
2022-09-30T21:58:30.549Z,5.47
2022-09-30T22:01:02.624Z,4.82
2022-09-30T22:03:31.743Z,4.85
2022-09-30T22:06:00.695Z,4.88
2022-09-30T22:08:33.080Z,4.50
2022-09-30T22:11:01.404Z,4.13
2022-09-30T22:13:29.771Z,4.25
2022-09-30T22:16:06.457Z,4.00
2022-09-30T22:18:35.181Z,3.78
2022-09-30T22:21:05.201Z,3.90
2022-09-30T22:23:33.781Z,3.70
2022-09-30T22:26:08.631Z,4.00
2022-09-30T22:28:37.470Z,4.15
2022-09-30T22:31:16.495Z,3.88
2022-09-30T22:34:02.278Z,3.88
2022-09-30T22:36:47.864Z,4.20
2022-09-30T22:39:16.209Z,4.50
2022-09-30T22:41:44.641Z,4.22
2022-09-30T22:44:12.997Z,4.28
2022-09-30T22:46:42.637Z,4.40
2022-09-30T22:49:11.814Z,4.25
2022-09-30T22:51:40.217Z,4.32
2022-09-30T22:54:08.470Z,3.70
2022-09-30T22:56:36.829Z,3.55
2022-09-30T22:59:05.179Z,3.40
2022-09-30T23:01:33.719Z,3.72
2022-09-30T23:04:03.827Z,3.45
2022-09-30T23:06:32.138Z,3.45
2022-09-30T23:09:00.586Z,3.30
2022-09-30T23:11:28.861Z,3.05
2022-09-30T23:13:59.285Z,3.47
2022-09-30T23:16:27.987Z,3.15
2022-09-30T23:18:57.499Z,3.33
2022-09-30T23:21:27.589Z,3.10
2022-09-30T23:23:55.942Z,3.22
2022-09-30T23:26:26.018Z,2.92
2022-09-30T23:28:58.266Z,2.78
2022-09-30T23:31:26.976Z,3.03
2022-09-30T23:33:57.339Z,3.17
2022-09-30T23:36:29.645Z,3.08
2022-09-30T23:39:02.761Z,3.20
2022-09-30T23:41:31.439Z,3.25
2022-09-30T23:44:01.053Z,3.25
2022-09-30T23:46:29.366Z,3.38
2022-09-30T23:48:57.802Z,3.38
2022-09-30T23:51:27.804Z,3.80
2022-09-30T23:53:56.316Z,3.50
2022-09-30T23:56:24.622Z,3.53
2022-09-30T23:58:53.026Z,3.70
